createdAt,value
2023-04-17T00:01:07.495Z,78.20
2023-04-17T00:04:11.397Z,78.10
2023-04-17T00:07:14.256Z,78.00
2023-04-17T00:10:16.842Z,78.10
2023-04-17T00:13:19.266Z,78.10
2023-04-17T00:16:21.704Z,77.90
2023-04-17T00:19:24.022Z,78.00
2023-04-17T00:22:26.481Z,78.10
2023-04-17T00:25:28.746Z,78.10
2023-04-17T00:28:33.028Z,78.10
2023-04-17T00:31:35.320Z,78.20
2023-04-17T00:34:38.299Z,78.90
2023-04-17T00:37:40.646Z,78.00
2023-04-17T00:40:45.581Z,78.10
2023-04-17T00:43:47.913Z,78.20
2023-04-17T00:46:50.365Z,78.20
2023-04-17T00:49:52.682Z,78.20
2023-04-17T00:52:55.888Z,78.20
2023-04-17T00:56:00.562Z,78.20
2023-04-17T00:59:06.748Z,78.30
2023-04-17T01:02:09.283Z,78.10
2023-04-17T01:05:11.986Z,78.10
2023-04-17T01:08:14.899Z,78.10
2023-04-17T01:11:17.838Z,78.20
2023-04-17T01:14:20.130Z,78.20
2023-04-17T01:17:23.249Z,78.30
2023-04-17T01:20:25.829Z,78.20
2023-04-17T01:23:29.644Z,78.20
2023-04-17T01:26:33.172Z,78.20
2023-04-17T01:29:35.932Z,78.20
2023-04-17T01:32:38.489Z,78.10
2023-04-17T01:35:41.140Z,78.20
2023-04-17T01:38:43.523Z,78.10
2023-04-17T01:41:45.818Z,78.10
2023-04-17T01:44:48.225Z,78.00
2023-04-17T01:47:50.947Z,78.00
2023-04-17T01:50:53.312Z,78.00
2023-04-17T01:53:55.648Z,77.90
2023-04-17T01:56:58.146Z,77.90
2023-04-17T02:00:01.000Z,77.80
2023-04-17T02:03:03.408Z,77.90
2023-04-17T02:06:05.884Z,77.90
2023-04-17T02:09:08.107Z,77.80
2023-04-17T02:12:14.330Z,77.90
2023-04-17T02:15:18.619Z,77.80
2023-04-17T02:18:21.318Z,77.80
2023-04-17T02:21:23.634Z,77.90
2023-04-17T02:24:26.353Z,77.80
2023-04-17T02:27:28.668Z,78.00
2023-04-17T02:30:31.313Z,78.00
2023-04-17T02:33:35.251Z,77.80
2023-04-17T02:36:37.630Z,78.00
2023-04-17T02:39:40.077Z,78.00
2023-04-17T02:42:42.729Z,78.10
2023-04-17T02:45:44.933Z,78.10
2023-04-17T02:48:48.256Z,78.00
2023-04-17T02:51:50.576Z,78.00
2023-04-17T02:54:52.894Z,78.10
2023-04-17T02:57:55.185Z,78.10
2023-04-17T03:01:03.979Z,78.10
2023-04-17T03:04:10.178Z,78.20
2023-04-17T03:07:13.895Z,78.30
2023-04-17T03:10:16.282Z,78.30
2023-04-17T03:13:19.852Z,78.40
2023-04-17T03:16:22.138Z,78.40
2023-04-17T03:19:24.446Z,78.40
2023-04-17T03:22:26.842Z,78.40
2023-04-17T03:25:29.171Z,78.40
2023-04-17T03:28:31.666Z,78.30
2023-04-17T03:31:34.043Z,78.40
2023-04-17T03:34:36.486Z,78.30
2023-04-17T03:37:38.841Z,78.50
2023-04-17T03:40:42.141Z,78.50
2023-04-17T03:43:45.849Z,78.50
2023-04-17T03:46:48.135Z,78.60
2023-04-17T03:49:50.657Z,78.80
2023-04-17T03:52:53.700Z,78.60
2023-04-17T03:55:57.302Z,78.60
2023-04-17T03:59:06.891Z,78.70
2023-04-17T04:02:13.509Z,78.60
2023-04-17T04:05:15.993Z,78.60
2023-04-17T04:08:19.129Z,78.60
2023-04-17T04:11:25.376Z,78.60
2023-04-17T04:14:27.747Z,78.60
2023-04-17T04:17:30.053Z,78.40
2023-04-17T04:20:33.358Z,78.50
2023-04-17T04:23:46.780Z,78.40
2023-04-17T04:26:53.366Z,78.50
2023-04-17T04:29:59.052Z,78.50
2023-04-17T04:33:06.251Z,78.40
2023-04-17T04:36:08.800Z,78.40
2023-04-17T04:39:11.906Z,78.30
2023-04-17T04:42:14.357Z,78.40
2023-04-17T04:45:29.197Z,78.40
2023-04-17T04:48:32.722Z,78.40
2023-04-17T04:51:36.115Z,77.60
2023-04-17T04:54:41.536Z,76.50
2023-04-17T04:57:44.363Z,76.40
2023-04-17T05:00:48.082Z,76.50
2023-04-17T05:03:57.730Z,76.70
2023-04-17T05:07:05.637Z,76.80
2023-04-17T05:10:11.952Z,77.00
2023-04-17T05:16:46.764Z,77.20
2023-04-17T05:19:49.704Z,77.40
2023-04-17T05:22:53.090Z,77.50
2023-04-17T05:25:57.486Z,77.50
2023-04-17T05:28:59.880Z,77.70
2023-04-17T05:32:05.982Z,77.70
2023-04-17T05:35:28.796Z,77.70
2023-04-17T05:38:31.893Z,77.80
2023-04-17T05:41:34.231Z,77.90
2023-04-17T05:44:36.591Z,77.90
2023-04-17T05:47:38.929Z,78.10
2023-04-17T05:50:41.438Z,78.20
2023-04-17T05:53:45.070Z,78.30
2023-04-17T05:56:47.674Z,78.40
2023-04-17T05:59:50.860Z,78.40
2023-04-17T06:02:53.542Z,78.40
2023-04-17T06:06:05.802Z,78.60
2023-04-17T06:09:10.021Z,78.60
2023-04-17T06:12:16.430Z,78.60
2023-04-17T06:15:19.975Z,78.80
2023-04-17T06:18:22.383Z,79.00
2023-04-17T06:21:24.993Z,78.90
2023-04-17T06:24:27.334Z,78.80
2023-04-17T06:27:30.626Z,78.80
2023-04-17T06:30:32.817Z,79.10
2023-04-17T06:33:35.005Z,79.20
2023-04-17T06:36:38.923Z,79.20
2023-04-17T06:39:41.569Z,79.40
2023-04-17T06:42:44.106Z,79.30
2023-04-17T06:45:53.138Z,79.50
2023-04-17T06:48:58.185Z,79.50
2023-04-17T06:52:00.991Z,79.50
2023-04-17T06:55:03.279Z,79.50
2023-04-17T06:58:08.050Z,79.40
2023-04-17T07:01:11.795Z,79.40
2023-04-17T07:04:14.237Z,79.60
2023-04-17T07:07:16.551Z,79.70
2023-04-17T07:10:19.878Z,79.60
2023-04-17T07:13:22.344Z,79.70
2023-04-17T07:16:24.852Z,79.90
2023-04-17T07:19:27.423Z,79.90
2023-04-17T07:22:29.618Z,80.10
2023-04-17T07:25:31.870Z,80.30
2023-04-17T07:28:42.428Z,80.30
2023-04-17T07:31:44.787Z,80.50
2023-04-17T07:34:47.826Z,80.50
2023-04-17T07:37:50.305Z,80.60
2023-04-17T07:40:52.604Z,80.60
2023-04-17T07:43:55.235Z,80.70
2023-04-17T07:46:58.798Z,80.80
2023-04-17T07:50:01.127Z,81.10
2023-04-17T07:53:03.547Z,81.00
2023-04-17T07:56:06.806Z,81.30
2023-04-17T07:59:09.905Z,81.50
2023-04-17T08:02:12.611Z,81.60
2023-04-17T08:05:15.026Z,81.40
2023-04-17T08:08:17.344Z,81.80
2023-04-17T08:11:19.872Z,81.90
2023-04-17T08:14:22.268Z,81.90
2023-04-17T08:17:26.321Z,81.90
2023-04-17T08:20:28.647Z,82.10
2023-04-17T08:23:31.146Z,82.50
2023-04-17T08:26:33.621Z,82.60
2023-04-17T08:29:35.964Z,82.50
2023-04-17T08:32:42.886Z,82.40
2023-04-17T08:35:45.884Z,82.40
2023-04-17T08:38:48.889Z,82.50
2023-04-17T08:42:04.099Z,82.70
2023-04-17T08:45:13.944Z,82.70
2023-04-17T08:48:16.409Z,82.60
2023-04-17T08:51:18.818Z,82.50
2023-04-17T08:54:22.287Z,82.40
2023-04-17T08:57:24.732Z,82.70
2023-04-17T09:00:28.760Z,82.50
2023-04-17T09:03:40.710Z,82.60
2023-04-17T09:06:53.204Z,82.50
2023-04-17T09:09:56.851Z,82.60
2023-04-17T09:13:01.272Z,82.50
2023-04-17T09:16:13.164Z,82.40
2023-04-17T09:19:15.626Z,82.50
2023-04-17T09:22:22.148Z,82.50
2023-04-17T09:25:24.669Z,82.50
2023-04-17T09:28:26.952Z,83.10
2023-04-17T09:31:34.990Z,82.60
2023-04-17T09:34:41.414Z,82.80
2023-04-17T09:37:55.249Z,82.50
2023-04-17T09:40:57.445Z,82.50
2023-04-17T09:44:07.327Z,82.70
2023-04-17T09:47:11.516Z,82.70
2023-04-17T09:50:18.348Z,82.70
2023-04-17T09:53:20.820Z,83.00
2023-04-17T09:56:24.650Z,82.80
2023-04-17T09:59:27.777Z,82.80
2023-04-17T10:02:30.186Z,82.90
2023-04-17T10:05:32.693Z,82.90
2023-04-17T10:08:35.362Z,82.90
2023-04-17T10:11:41.009Z,82.90
2023-04-17T10:14:48.909Z,83.20
2023-04-17T10:17:51.345Z,83.00
2023-04-17T10:20:54.282Z,83.10
2023-04-17T10:23:56.897Z,83.10
2023-04-17T10:26:59.145Z,83.20
2023-04-17T10:30:03.148Z,83.30
2023-04-17T10:33:22.188Z,83.30
2023-04-17T10:36:39.777Z,83.10
2023-04-17T10:40:01.897Z,83.20
2023-04-17T10:43:22.589Z,83.10
2023-04-17T10:46:26.499Z,83.30
2023-04-17T10:49:28.862Z,83.20
2023-04-17T10:52:40.478Z,83.20
2023-04-17T10:55:52.585Z,83.20
2023-04-17T10:59:05.534Z,83.20
2023-04-17T11:02:08.198Z,83.10
2023-04-17T11:05:11.208Z,83.10
2023-04-17T11:08:13.852Z,83.00
2023-04-17T11:11:27.024Z,82.80
2023-04-17T11:14:41.101Z,83.00
2023-04-17T11:17:48.178Z,82.70
2023-04-17T11:20:50.618Z,82.50
2023-04-17T11:23:52.874Z,82.50
2023-04-17T11:26:56.768Z,82.40
2023-04-17T11:29:59.148Z,82.40
2023-04-17T11:33:03.509Z,82.40
2023-04-17T11:36:08.980Z,82.30
2023-04-17T11:39:15.135Z,82.20
2023-04-17T11:42:27.191Z,82.10
2023-04-17T11:45:32.767Z,82.10
2023-04-17T11:48:35.363Z,81.90
2023-04-17T11:51:38.022Z,81.80
2023-04-17T11:54:40.330Z,81.60
2023-04-17T11:57:45.951Z,81.10
2023-04-17T12:01:05.360Z,80.90
2023-04-17T12:04:21.017Z,81.00
2023-04-17T12:07:25.036Z,80.70
2023-04-17T12:10:36.843Z,80.60
2023-04-17T12:13:39.306Z,80.70
2023-04-17T12:16:41.918Z,80.50
2023-04-17T12:19:45.445Z,80.40
2023-04-17T12:22:47.660Z,80.50
2023-04-17T12:25:49.972Z,80.10
2023-04-17T12:28:52.474Z,79.70
2023-04-17T12:31:54.793Z,79.80
2023-04-17T12:34:57.168Z,79.90
2023-04-17T12:37:59.692Z,79.70
2023-04-17T12:41:02.153Z,79.60
2023-04-17T12:44:07.440Z,79.60
2023-04-17T12:47:09.727Z,79.50
2023-04-17T12:50:13.088Z,79.50
2023-04-17T12:53:15.872Z,79.30
2023-04-17T12:56:18.175Z,79.30
2023-04-17T12:59:20.763Z,79.20
2023-04-17T13:02:23.925Z,79.10
2023-04-17T13:05:27.694Z,79.10
2023-04-17T13:08:30.472Z,79.00
2023-04-17T13:11:32.762Z,78.90
2023-04-17T13:14:35.151Z,78.80
2023-04-17T13:17:37.690Z,78.80
2023-04-17T13:20:40.231Z,78.70
2023-04-17T13:23:42.674Z,78.60
2023-04-17T13:26:45.262Z,78.60
2023-04-17T13:29:47.596Z,78.30
2023-04-17T13:32:49.859Z,78.30
2023-04-17T13:35:53.484Z,78.30
2023-04-17T13:38:55.743Z,78.10
2023-04-17T13:41:58.300Z,78.10
2023-04-17T13:45:00.573Z,78.10
2023-04-17T13:48:03.283Z,78.00
2023-04-17T13:51:05.690Z,77.80
2023-04-17T13:54:09.436Z,77.80
2023-04-17T13:57:14.750Z,77.80
2023-04-17T14:00:19.098Z,77.80
2023-04-17T14:03:21.444Z,77.60
2023-04-17T14:06:23.851Z,78.30
2023-04-17T14:09:26.273Z,77.60
2023-04-17T14:12:28.688Z,77.50
2023-04-17T14:15:32.227Z,77.30
2023-04-17T14:18:34.444Z,77.20
2023-04-17T14:21:36.800Z,77.10
2023-04-17T14:24:39.074Z,77.00
2023-04-17T14:27:41.386Z,77.00
2023-04-17T14:30:43.673Z,76.80
2023-04-17T14:33:45.952Z,76.60
2023-04-17T14:36:49.011Z,76.60
2023-04-17T14:39:51.499Z,76.60
2023-04-17T14:42:54.751Z,76.50
2023-04-17T14:45:57.335Z,76.50
2023-04-17T14:48:59.680Z,76.30
2023-04-17T14:52:02.103Z,76.30
2023-04-17T14:55:04.673Z,76.40
2023-04-17T14:58:07.100Z,76.40
2023-04-17T15:01:10.814Z,76.20
2023-04-17T15:04:15.592Z,76.30
2023-04-17T15:07:20.234Z,76.50
2023-04-17T15:10:23.355Z,76.20
2023-04-17T15:13:25.617Z,76.30
2023-04-17T15:16:28.077Z,75.60
2023-04-17T15:19:30.396Z,74.70
2023-04-17T15:22:33.376Z,74.30
2023-04-17T15:25:35.744Z,74.10
2023-04-17T15:28:38.009Z,74.60
2023-04-17T15:31:40.533Z,74.90
2023-04-17T15:34:42.946Z,75.30
2023-04-17T15:37:45.317Z,75.60
2023-04-17T15:40:47.952Z,75.60
2023-04-17T15:43:50.542Z,75.60
2023-04-17T15:46:52.876Z,75.90
2023-04-17T15:49:55.160Z,75.80
2023-04-17T15:52:57.533Z,75.80
2023-04-17T15:56:00.024Z,75.80
2023-04-17T15:59:02.327Z,75.80
2023-04-17T16:02:04.906Z,76.50
2023-04-17T16:05:07.615Z,76.00
2023-04-17T16:08:09.922Z,75.90
2023-04-17T16:11:12.712Z,75.80
2023-04-17T16:14:15.179Z,76.00
2023-04-17T16:17:18.042Z,76.00
2023-04-17T16:20:20.392Z,75.90
2023-04-17T16:23:22.813Z,75.80
2023-04-17T16:26:30.726Z,75.80
2023-04-17T16:29:33.204Z,75.90
2023-04-17T16:32:35.767Z,76.10
2023-04-17T16:35:37.997Z,76.10
2023-04-17T16:38:40.404Z,76.50
2023-04-17T16:41:42.748Z,76.20
2023-04-17T16:44:48.431Z,76.20
2023-04-17T16:47:50.818Z,76.20
2023-04-17T16:50:53.156Z,76.20
2023-04-17T16:53:55.417Z,76.30
2023-04-17T16:56:57.634Z,76.30
2023-04-17T16:59:59.905Z,76.30
2023-04-17T17:03:02.432Z,76.50
2023-04-17T17:06:07.385Z,76.40
2023-04-17T17:09:09.796Z,76.40
2023-04-17T17:12:12.033Z,76.40
2023-04-17T17:15:14.390Z,76.50
2023-04-17T17:18:16.653Z,76.50
2023-04-17T17:21:18.864Z,76.50
2023-04-17T17:24:21.103Z,76.50
2023-04-17T17:27:23.445Z,76.60
2023-04-17T17:30:26.078Z,76.70
2023-04-17T17:33:29.136Z,76.60
2023-04-17T17:36:31.588Z,76.70
2023-04-17T17:39:33.819Z,76.70
2023-04-17T17:42:36.153Z,76.70
2023-04-17T17:45:39.183Z,76.80
2023-04-17T17:48:41.501Z,76.90
2023-04-17T17:51:44.746Z,76.90
2023-04-17T17:54:46.942Z,76.90
2023-04-17T17:57:49.850Z,76.90
2023-04-17T18:00:52.445Z,76.90
2023-04-17T18:03:54.982Z,77.00
2023-04-17T18:06:57.469Z,77.10
2023-04-17T18:10:00.574Z,77.10
2023-04-17T18:13:02.853Z,77.20
2023-04-17T18:16:05.361Z,77.20
2023-04-17T18:19:07.733Z,77.10
2023-04-17T18:22:10.443Z,77.10
2023-04-17T18:25:12.929Z,77.10
2023-04-17T18:28:15.430Z,77.20
2023-04-17T18:31:18.044Z,77.20
2023-04-17T18:34:23.593Z,77.40
2023-04-17T18:37:25.950Z,77.40
2023-04-17T18:40:28.274Z,77.40
2023-04-17T18:43:30.804Z,77.50
2023-04-17T18:46:33.179Z,77.60
2023-04-17T18:49:35.595Z,77.70
2023-04-17T18:52:40.308Z,77.70
2023-04-17T18:55:42.520Z,77.60
2023-04-17T18:58:44.819Z,77.70
2023-04-17T19:01:47.645Z,77.80
2023-04-17T19:04:50.078Z,77.80
2023-04-17T19:07:53.209Z,77.80
2023-04-17T19:10:55.504Z,78.00
2023-04-17T19:13:57.766Z,77.90
2023-04-17T19:17:00.126Z,78.00
2023-04-17T19:20:02.885Z,77.90
2023-04-17T19:23:05.093Z,77.90
2023-04-17T19:26:07.521Z,78.00
2023-04-17T19:29:09.763Z,78.00
2023-04-17T19:32:12.925Z,78.00
2023-04-17T19:35:15.293Z,78.00
2023-04-17T19:38:17.767Z,78.20
2023-04-17T19:41:22.521Z,78.20
2023-04-17T19:44:27.775Z,78.30
2023-04-17T19:47:30.364Z,78.20
2023-04-17T19:50:33.024Z,78.20
2023-04-17T19:53:36.883Z,78.30
2023-04-17T19:56:39.701Z,78.30
2023-04-17T19:59:41.948Z,78.30
2023-04-17T20:02:44.673Z,78.30
2023-04-17T20:05:48.118Z,78.30
2023-04-17T20:08:50.618Z,78.30
2023-04-17T20:11:53.211Z,78.30
2023-04-17T20:14:55.496Z,78.30
2023-04-17T20:17:58.424Z,78.20
2023-04-17T20:21:04.682Z,78.20
2023-04-17T20:24:07.055Z,78.30
2023-04-17T20:27:09.333Z,78.50
2023-04-17T20:30:12.081Z,78.30
2023-04-17T20:33:14.631Z,78.30
2023-04-17T20:36:17.305Z,78.30
2023-04-17T20:39:19.667Z,78.30
2023-04-17T20:42:22.095Z,78.30
2023-04-17T20:45:24.342Z,78.40
2023-04-17T20:48:26.724Z,78.30
2023-04-17T20:51:29.012Z,78.30
2023-04-17T20:54:31.286Z,78.30
2023-04-17T20:57:34.003Z,78.20
2023-04-17T21:00:39.990Z,78.20
2023-04-17T21:03:47.266Z,78.10
2023-04-17T21:06:49.661Z,78.20
2023-04-17T21:09:52.041Z,78.90
2023-04-17T21:12:54.409Z,78.30
2023-04-17T21:15:56.720Z,78.20
2023-04-17T21:18:59.088Z,78.20
2023-04-17T21:22:01.245Z,78.20
2023-04-17T21:25:03.555Z,78.20
2023-04-17T21:28:05.837Z,78.20
2023-04-17T21:31:10.462Z,78.20
2023-04-17T21:34:12.879Z,78.20
2023-04-17T21:37:15.485Z,78.20
2023-04-17T21:40:17.820Z,78.20
2023-04-17T21:43:20.265Z,78.20
2023-04-17T21:46:22.575Z,78.10
2023-04-17T21:49:25.062Z,78.10
2023-04-17T21:52:27.270Z,78.10
2023-04-17T21:55:29.474Z,78.20
2023-04-17T21:58:31.838Z,78.10
2023-04-17T22:01:34.233Z,78.10
2023-04-17T22:04:36.721Z,78.00
2023-04-17T22:07:53.744Z,78.00
2023-04-17T22:10:57.534Z,78.00
2023-04-17T22:13:59.863Z,78.00
2023-04-17T22:17:02.170Z,78.00
2023-04-17T22:20:04.970Z,78.00
2023-04-17T22:23:07.603Z,78.00
2023-04-17T22:26:09.848Z,78.00
2023-04-17T22:29:12.128Z,78.10
2023-04-17T22:32:14.343Z,78.00
2023-04-17T22:35:16.716Z,77.90
2023-04-17T22:38:21.019Z,77.90
2023-04-17T22:41:23.286Z,78.00
2023-04-17T22:44:25.710Z,77.90
2023-04-17T22:47:28.006Z,78.00
2023-04-17T22:50:30.804Z,78.00
2023-04-17T22:53:33.697Z,78.00
2023-04-17T22:56:35.887Z,78.30
2023-04-17T22:59:38.099Z,78.00
2023-04-17T23:02:40.518Z,78.00
2023-04-17T23:05:43.070Z,78.10
2023-04-17T23:08:45.462Z,78.10
2023-04-17T23:11:47.857Z,78.10
2023-04-17T23:14:50.159Z,78.10
2023-04-17T23:17:52.444Z,78.70
2023-04-17T23:20:54.844Z,78.10
2023-04-17T23:23:57.078Z,78.20
2023-04-17T23:26:59.371Z,78.20
2023-04-17T23:30:01.726Z,78.30
2023-04-17T23:33:04.664Z,78.30
2023-04-17T23:36:07.244Z,78.40
2023-04-17T23:39:09.500Z,78.40
2023-04-17T23:42:11.750Z,78.30
2023-04-17T23:45:14.414Z,78.40
2023-04-17T23:48:16.835Z,78.40
2023-04-17T23:51:19.607Z,78.40
2023-04-17T23:54:22.058Z,78.30
2023-04-17T23:57:25.064Z,78.40
